createdAt,value
2022-11-24T00:01:25.087Z,2.106
2022-11-24T00:03:26.807Z,5.054
2022-11-24T00:05:28.622Z,4.071
2022-11-24T00:07:29.910Z,3.65
2022-11-24T00:09:30.977Z,1.684
2022-11-24T00:11:32.360Z,0.14
2022-11-24T00:13:33.454Z,1.404
2022-11-24T00:15:34.994Z,4.773
2022-11-24T00:17:36.672Z,0.561
2022-11-24T00:19:37.917Z,3.79
2022-11-24T00:21:39.600Z,1.825
2022-11-24T00:23:40.648Z,2.948
2022-11-24T00:25:42.329Z,5.335
2022-11-24T00:27:44.090Z,5.756
2022-11-24T00:29:45.599Z,7.16
2022-11-24T00:31:46.886Z,1.965
2022-11-24T00:33:48.518Z,1.544
2022-11-24T00:35:50.156Z,1.825
2022-11-24T00:37:51.726Z,5.335
2022-11-24T00:39:53.404Z,5.194
2022-11-24T00:41:54.889Z,2.246
2022-11-24T00:43:56.101Z,1.965
2022-11-24T00:45:57.532Z,2.948
2022-11-24T00:47:59.141Z,1.965
2022-11-24T00:50:00.833Z,1.684
2022-11-24T00:52:01.986Z,1.965
2022-11-24T00:54:03.657Z,1.263
2022-11-24T00:56:04.745Z,3.65
2022-11-24T00:58:05.981Z,0
2022-11-24T01:00:07.689Z,3.088
2022-11-24T01:02:09.089Z,4.071
2022-11-24T01:04:10.965Z,0
2022-11-24T01:04:54.813Z,4.212
2022-11-24T01:06:56.297Z,1.825
2022-11-24T01:08:58.073Z,2.667
2022-11-24T01:10:59.745Z,4.071
2022-11-24T01:15:03.369Z,1.965
2022-11-24T01:17:04.604Z,0
2022-11-24T01:19:06.373Z,0.842
2022-11-24T01:21:09.949Z,2.246
2022-11-24T01:25:10.557Z,0
2022-11-24T01:27:12.467Z,0
2022-11-24T01:29:13.779Z,0.702
2022-11-24T01:31:15.506Z,2.386
2022-11-24T01:33:17.223Z,6.177
2022-11-24T01:35:18.824Z,4.773
2022-11-24T01:37:20.341Z,1.404
2022-11-24T01:39:22.163Z,0.421
2022-11-24T01:41:23.459Z,6.177
2022-11-24T01:43:25.006Z,1.123
2022-11-24T01:45:26.513Z,1.404
2022-11-24T01:47:27.978Z,3.51
2022-11-24T01:49:29.413Z,4.492
2022-11-24T01:51:31.183Z,1.825
2022-11-24T01:53:32.510Z,1.263
2022-11-24T01:55:42.187Z,5.756
2022-11-24T01:57:36.147Z,5.616
2022-11-24T01:59:37.976Z,4.492
2022-11-24T02:01:39.534Z,4.492
2022-11-24T02:03:40.602Z,3.229
2022-11-24T02:07:43.691Z,3.931
2022-11-24T02:09:44.903Z,2.527
2022-11-24T02:11:45.913Z,2.808
2022-11-24T02:13:47.041Z,3.229
2022-11-24T02:15:48.275Z,4.212
2022-11-24T02:19:51.579Z,2.948
2022-11-24T02:21:53.092Z,4.633
2022-11-24T02:23:54.989Z,3.79
2022-11-24T02:25:55.954Z,6.739
2022-11-24T02:29:58.440Z,2.808
2022-11-24T02:31:59.859Z,4.914
2022-11-24T02:34:00.822Z,9.828
2022-11-24T02:36:01.963Z,4.773
2022-11-24T02:40:05.400Z,4.914
2022-11-24T02:42:07.085Z,4.071
2022-11-24T02:44:08.237Z,4.914
2022-11-24T02:46:09.567Z,5.475
2022-11-24T02:50:12.122Z,3.65
2022-11-24T02:52:13.355Z,8.283
2022-11-24T02:54:15.150Z,11.091
2022-11-24T02:56:16.787Z,7.581
2022-11-24T02:58:18.472Z,4.633
2022-11-24T03:00:19.997Z,9.126
2022-11-24T03:02:21.726Z,9.828
2022-11-24T03:04:23.048Z,6.037
2022-11-24T03:06:24.868Z,7.441
2022-11-24T03:08:25.957Z,2.386
2022-11-24T03:10:27.882Z,5.054
2022-11-24T03:12:29.601Z,7.581
2022-11-24T03:14:30.781Z,5.335
2022-11-24T03:18:33.711Z,8.143
2022-11-24T03:22:36.620Z,7.722
2022-11-24T03:24:38.272Z,4.773
2022-11-24T03:26:39.377Z,2.386
2022-11-24T03:28:41.155Z,7.862
2022-11-24T03:32:43.990Z,4.352
2022-11-24T03:34:44.976Z,3.229
2022-11-24T03:36:46.288Z,5.475
2022-11-24T03:38:47.678Z,5.194
2022-11-24T03:40:49.172Z,8.564
2022-11-24T03:42:50.927Z,3.51
2022-11-24T03:44:52.494Z,3.229
2022-11-24T03:46:54.160Z,4.773
2022-11-24T03:48:55.217Z,0.982
2022-11-24T03:50:57.192Z,12.776
2022-11-24T03:52:58.468Z,1.965
2022-11-24T03:54:59.985Z,4.773
2022-11-24T03:57:01.394Z,6.739
2022-11-24T03:59:02.728Z,5.756
2022-11-24T04:01:04.574Z,8.845
2022-11-24T04:03:05.563Z,7.02
2022-11-24T04:05:06.604Z,9.547
2022-11-24T04:07:08.010Z,3.65
2022-11-24T04:09:09.563Z,6.037
2022-11-24T04:11:11.360Z,8.143
2022-11-24T04:13:12.530Z,2.106
2022-11-24T04:15:13.623Z,2.948
2022-11-24T04:17:15.044Z,2.106
2022-11-24T04:19:16.021Z,4.773
2022-11-24T04:21:17.230Z,3.088
2022-11-24T04:23:18.562Z,6.318
2022-11-24T04:25:20.487Z,0.421
2022-11-24T04:27:21.979Z,5.335
2022-11-24T04:29:23.557Z,2.386
2022-11-24T04:31:25.224Z,2.386
2022-11-24T04:33:27.045Z,3.369
2022-11-24T04:35:28.563Z,9.968
2022-11-24T04:37:29.542Z,4.212
2022-11-24T04:39:31.309Z,4.071
2022-11-24T04:41:32.585Z,3.229
2022-11-24T04:43:37.792Z,0.982
2022-11-24T04:45:35.519Z,2.948
2022-11-24T04:47:37.066Z,4.212
2022-11-24T04:49:38.685Z,3.51
2022-11-24T04:51:39.634Z,4.352
2022-11-24T04:53:40.785Z,4.212
2022-11-24T04:55:42.698Z,2.808
2022-11-24T04:57:44.211Z,1.123
2022-11-24T04:59:46.064Z,1.965
2022-11-24T05:01:47.824Z,2.246
2022-11-24T05:03:48.891Z,1.825
2022-11-24T05:05:50.581Z,2.808
2022-11-24T05:07:52.151Z,0
2022-11-24T05:09:59.135Z,3.369
2022-11-24T05:11:55.327Z,3.369
2022-11-24T05:13:56.808Z,4.492
2022-11-24T05:15:58.441Z,4.212
2022-11-24T05:18:00.141Z,2.246
2022-11-24T05:20:01.480Z,0.702
2022-11-24T05:22:03.175Z,1.404
2022-11-24T05:24:04.860Z,2.106
2022-11-24T05:26:05.903Z,3.65
2022-11-24T05:28:07.292Z,0.28
2022-11-24T05:30:08.333Z,7.581
2022-11-24T05:32:10.013Z,2.808
2022-11-24T05:34:11.226Z,2.527
2022-11-24T05:36:12.218Z,4.492
2022-11-24T05:38:13.266Z,6.598
2022-11-24T05:40:14.723Z,5.756
2022-11-24T05:42:16.322Z,5.054
2022-11-24T05:46:18.882Z,1.263
2022-11-24T05:48:20.625Z,8.002
2022-11-24T05:50:21.844Z,2.246
2022-11-24T05:52:23.524Z,1.404
2022-11-24T05:56:25.773Z,2.386
2022-11-24T05:58:26.975Z,3.51
2022-11-24T06:00:28.596Z,9.406
2022-11-24T06:02:29.721Z,8.283
2022-11-24T06:04:30.881Z,7.02
2022-11-24T06:06:32.065Z,8.143
2022-11-24T06:08:33.863Z,5.756
2022-11-24T06:10:34.868Z,3.65
2022-11-24T06:12:36.474Z,4.352
2022-11-24T06:14:37.912Z,3.65
2022-11-24T06:16:39.340Z,3.931
2022-11-24T06:18:41.157Z,3.229
2022-11-24T06:20:43.844Z,5.475
2022-11-24T06:22:44.054Z,6.458
2022-11-24T06:24:45.003Z,8.283
2022-11-24T06:26:46.336Z,3.65
2022-11-24T06:28:48.249Z,2.808
2022-11-24T06:30:49.322Z,1.123
2022-11-24T06:32:50.347Z,7.441
2022-11-24T06:34:51.766Z,4.492
2022-11-24T06:38:55.249Z,2.527
2022-11-24T06:40:57.143Z,7.02
2022-11-24T06:42:58.900Z,3.65
2022-11-24T06:45:00.829Z,2.246
2022-11-24T06:47:02.197Z,5.756
2022-11-24T06:49:03.186Z,4.352
2022-11-24T06:51:04.571Z,5.335
2022-11-24T06:53:05.902Z,8.564
2022-11-24T06:55:07.528Z,2.667
2022-11-24T06:57:09.195Z,6.037
2022-11-24T06:59:11.033Z,3.51
2022-11-24T07:01:12.283Z,6.879
2022-11-24T07:03:13.844Z,2.808
2022-11-24T07:05:15.297Z,3.51
2022-11-24T07:07:16.639Z,6.458
2022-11-24T07:09:18.018Z,4.633
2022-11-24T07:11:19.478Z,6.318
2022-11-24T07:13:21.246Z,5.194
2022-11-24T07:15:22.955Z,4.352
2022-11-24T07:17:24.219Z,4.914
2022-11-24T07:19:25.448Z,2.527
2022-11-24T07:21:26.186Z,4.071
2022-11-24T07:23:27.369Z,4.633
2022-11-24T07:25:28.967Z,3.65
2022-11-24T07:27:30.060Z,2.948
2022-11-24T07:29:31.825Z,2.106
2022-11-24T07:31:33.549Z,3.088
2022-11-24T07:33:35.134Z,2.948
2022-11-24T07:35:36.248Z,3.65
2022-11-24T07:37:37.278Z,2.948
2022-11-24T07:39:38.302Z,3.51
2022-11-24T07:41:39.288Z,4.914
2022-11-24T07:43:40.781Z,4.633
2022-11-24T07:45:42.739Z,5.335
2022-11-24T07:47:43.786Z,5.756
2022-11-24T07:49:44.972Z,4.773
2022-11-24T07:50:28.861Z,3.088
2022-11-24T07:54:31.900Z,2.527
2022-11-24T07:56:33.652Z,3.369
2022-11-24T07:58:34.559Z,2.948
2022-11-24T08:00:35.558Z,5.475
2022-11-24T08:04:38.315Z,3.79
2022-11-24T08:06:44.543Z,4.212
2022-11-24T08:08:41.736Z,5.054
2022-11-24T08:10:43.649Z,5.054
2022-11-24T08:12:45.199Z,6.177
2022-11-24T08:14:46.581Z,2.667
2022-11-24T08:16:48.254Z,2.667
2022-11-24T08:18:49.277Z,2.527
2022-11-24T08:20:50.422Z,5.054
2022-11-24T08:22:52.319Z,5.616
2022-11-24T08:24:54.168Z,4.773
2022-11-24T08:26:55.426Z,2.808
2022-11-24T08:28:56.580Z,4.773
2022-11-24T08:30:58.236Z,4.492
2022-11-24T08:32:59.471Z,3.088
2022-11-24T08:35:13.282Z,4.492
2022-11-24T08:37:02.216Z,9.968
2022-11-24T08:39:03.306Z,7.441
2022-11-24T08:41:04.855Z,4.773
2022-11-24T08:43:06.646Z,5.335
2022-11-24T08:45:19.711Z,7.441
2022-11-24T08:47:08.867Z,4.071
2022-11-24T08:49:09.823Z,2.808
2022-11-24T08:51:11.162Z,7.722
2022-11-24T08:53:12.916Z,3.369
2022-11-24T08:55:14.617Z,1.684
2022-11-24T08:57:21.561Z,5.054
2022-11-24T08:59:18.325Z,7.16
2022-11-24T09:01:20.132Z,10.108
2022-11-24T09:03:21.604Z,2.808
2022-11-24T09:05:50.474Z,10.108
2022-11-24T09:07:24.404Z,5.054
2022-11-24T09:09:26.022Z,3.65
2022-11-24T09:11:27.377Z,3.229
2022-11-24T09:13:28.618Z,1.965
2022-11-24T09:15:30.275Z,3.088
2022-11-24T09:17:32.162Z,4.071
2022-11-24T09:19:33.486Z,0.421
2022-11-24T09:21:34.821Z,2.386
2022-11-24T09:23:35.971Z,0.982
2022-11-24T09:25:37.739Z,2.246
2022-11-24T09:27:38.749Z,6.739
2022-11-24T09:29:40.197Z,6.318
2022-11-24T09:31:41.643Z,5.054
2022-11-24T09:33:42.679Z,3.369
2022-11-24T09:35:44.304Z,1.965
2022-11-24T09:37:45.275Z,1.965
2022-11-24T09:39:46.935Z,2.527
2022-11-24T09:41:48.303Z,4.492
2022-11-24T09:43:49.433Z,1.825
2022-11-24T09:46:05.279Z,0.842
2022-11-24T09:47:53.011Z,2.386
2022-11-24T09:49:54.115Z,1.544
2022-11-24T09:51:55.281Z,4.212
2022-11-24T09:53:56.444Z,6.318
2022-11-24T09:55:58.148Z,8.564
2022-11-24T09:57:59.223Z,4.773
2022-11-24T10:00:00.820Z,10.67
2022-11-24T10:02:01.891Z,4.071
2022-11-24T10:04:06.198Z,7.722
2022-11-24T10:06:04.376Z,3.229
2022-11-24T10:08:05.486Z,6.598
2022-11-24T10:10:06.925Z,2.246
2022-11-24T10:12:08.017Z,6.037
2022-11-24T10:14:09.384Z,2.527
2022-11-24T10:16:10.390Z,4.212
2022-11-24T10:18:16.633Z,3.088
2022-11-24T10:20:13.695Z,4.773
2022-11-24T10:22:15.082Z,6.739
2022-11-24T10:24:16.330Z,10.389
2022-11-24T10:28:18.523Z,6.598
2022-11-24T10:30:19.875Z,5.896
2022-11-24T10:32:21.581Z,8.143
2022-11-24T10:34:23.277Z,4.773
2022-11-24T10:38:26.250Z,7.16
2022-11-24T10:40:49.030Z,7.862
2022-11-24T10:42:28.094Z,5.194
2022-11-24T10:44:29.841Z,10.67
2022-11-24T10:46:34.925Z,5.896
2022-11-24T10:48:32.602Z,9.687
2022-11-24T10:50:33.688Z,5.194
2022-11-24T10:52:34.969Z,7.02
2022-11-24T10:54:36.654Z,6.318
2022-11-24T10:56:38.468Z,2.948
2022-11-24T11:00:41.894Z,9.126
2022-11-24T11:02:43.977Z,7.722
2022-11-24T11:04:44.916Z,5.194
2022-11-24T11:06:45.864Z,7.16
2022-11-24T11:10:48.150Z,9.828
2022-11-24T11:12:49.550Z,10.67
2022-11-24T11:14:51.180Z,10.67
2022-11-24T11:16:52.066Z,8.143
2022-11-24T11:20:55.370Z,11.091
2022-11-24T11:22:56.836Z,9.547
2022-11-24T11:24:58.311Z,8.704
2022-11-24T11:26:59.545Z,6.458
2022-11-24T11:31:13.912Z,6.879
2022-11-24T11:31:18.954Z,7.16
2022-11-24T11:35:04.265Z,7.581
2022-11-24T11:37:05.434Z,5.335
2022-11-24T11:39:07.293Z,7.581
2022-11-24T11:41:08.906Z,9.126
2022-11-24T11:43:10.539Z,6.598
2022-11-24T11:45:11.988Z,7.3
2022-11-24T11:47:14.011Z,6.037
2022-11-24T11:49:14.887Z,9.406
2022-11-24T11:51:23.108Z,5.756
2022-11-24T11:53:17.994Z,11.232
2022-11-24T11:55:19.954Z,9.547
2022-11-24T11:57:20.977Z,4.352
2022-11-24T11:59:22.472Z,6.739
2022-11-24T12:01:24.292Z,4.212
2022-11-24T12:03:26.327Z,6.739
2022-11-24T12:05:27.270Z,6.037
2022-11-24T12:07:28.929Z,7.02
2022-11-24T12:09:29.828Z,11.232
2022-11-24T12:11:31.025Z,4.633
2022-11-24T12:13:32.125Z,3.79
2022-11-24T12:15:33.090Z,8.564
2022-11-24T12:17:34.538Z,5.616
2022-11-24T12:19:36.063Z,12.776
2022-11-24T12:21:36.811Z,9.828
2022-11-24T12:23:37.963Z,8.704
2022-11-24T12:25:39.180Z,9.547
2022-11-24T12:27:40.185Z,4.914
2022-11-24T12:29:42.066Z,8.143
2022-11-24T12:31:43.939Z,12.636
2022-11-24T12:33:50.564Z,4.633
2022-11-24T12:35:46.743Z,7.441
2022-11-24T12:37:47.824Z,4.633
2022-11-24T12:39:49.009Z,3.79
2022-11-24T12:41:50.243Z,7.581
2022-11-24T12:43:51.416Z,11.512
2022-11-24T12:45:52.568Z,6.598
2022-11-24T12:47:53.876Z,7.862
2022-11-24T12:51:56.618Z,10.951
2022-11-24T12:53:57.705Z,8.424
2022-11-24T12:55:58.979Z,7.3
2022-11-24T12:57:59.980Z,3.931
2022-11-24T13:02:03.016Z,4.914
2022-11-24T13:04:04.831Z,4.914
2022-11-24T13:06:05.864Z,6.879
2022-11-24T13:08:07.641Z,4.212
2022-11-24T13:10:09.495Z,4.914
2022-11-24T13:12:10.730Z,3.79
2022-11-24T13:14:11.765Z,5.194
2022-11-24T13:16:34.997Z,4.071
2022-11-24T13:18:14.786Z,1.684
2022-11-24T13:20:15.971Z,2.948
2022-11-24T13:22:17.705Z,5.616
2022-11-24T13:24:19.552Z,2.948
2022-11-24T13:26:22.571Z,7.722
2022-11-24T13:28:33.556Z,6.177
2022-11-24T13:30:25.197Z,5.616
2022-11-24T13:34:27.768Z,3.51
2022-11-24T13:36:29.450Z,5.896
2022-11-24T13:38:31.165Z,4.914
2022-11-24T13:40:32.097Z,4.352
2022-11-24T13:46:36.326Z,5.335
2022-11-24T13:48:37.967Z,6.739
2022-11-24T13:50:39.645Z,3.369
2022-11-24T13:52:40.573Z,6.177
2022-11-24T13:56:44.060Z,5.756
2022-11-24T13:58:45.425Z,7.441
2022-11-24T14:00:46.870Z,6.879
2022-11-24T14:02:47.938Z,7.722
2022-11-24T14:06:50.598Z,4.212
2022-11-24T14:08:51.782Z,5.335
2022-11-24T14:10:52.983Z,5.616
2022-11-24T14:12:54.599Z,6.037
2022-11-24T14:16:57.014Z,2.106
2022-11-24T14:18:58.016Z,3.79
2022-11-24T14:20:59.408Z,2.386
2022-11-24T14:23:01.037Z,3.369
2022-11-24T14:25:02.745Z,4.633
2022-11-24T14:27:04.301Z,3.51
2022-11-24T14:29:05.337Z,4.492
2022-11-24T14:31:07.086Z,7.441
2022-11-24T14:33:08.593Z,5.194
2022-11-24T14:35:09.776Z,5.756
2022-11-24T14:35:53.580Z,5.756
2022-11-24T14:37:54.855Z,7.16
2022-11-24T14:39:56.493Z,4.773
2022-11-24T14:41:57.920Z,5.756
2022-11-24T14:43:59.001Z,3.65
2022-11-24T14:45:59.940Z,3.088
2022-11-24T14:48:01.278Z,0.28
2022-11-24T14:50:02.318Z,1.684
2022-11-24T14:52:04.310Z,3.931
2022-11-24T14:54:05.836Z,3.088
2022-11-24T14:56:07.366Z,3.931
2022-11-24T15:00:10.254Z,4.773
2022-11-24T15:02:12.284Z,2.808
2022-11-24T15:04:21.937Z,7.02
2022-11-24T15:06:15.130Z,1.965
2022-11-24T15:10:17.794Z,6.177
2022-11-24T15:12:18.932Z,0
2022-11-24T15:14:20.210Z,4.352
2022-11-24T15:16:21.797Z,2.246
2022-11-24T15:18:22.866Z,5.896
2022-11-24T15:20:24.557Z,0.982
2022-11-24T15:22:25.871Z,2.948
2022-11-24T15:24:26.930Z,1.825
2022-11-24T15:26:32.187Z,1.263
2022-11-24T15:28:30.666Z,5.054
2022-11-24T15:30:31.651Z,2.808
2022-11-24T15:32:33.398Z,2.948
2022-11-24T15:34:35.243Z,3.088
2022-11-24T15:36:36.977Z,2.667
2022-11-24T15:38:38.056Z,3.229
2022-11-24T15:42:40.663Z,2.246
2022-11-24T15:44:42.294Z,0.702
2022-11-24T15:46:43.504Z,0.842
2022-11-24T15:48:45.105Z,1.965
2022-11-24T15:52:47.782Z,2.386
2022-11-24T15:54:49.558Z,0
2022-11-24T15:56:50.858Z,3.65
2022-11-24T15:58:52.732Z,2.527
2022-11-24T16:00:54.286Z,0.28
2022-11-24T16:02:56.096Z,0.982
2022-11-24T16:04:57.750Z,1.404
2022-11-24T16:06:59.474Z,0
2022-11-24T16:09:00.534Z,0
2022-11-24T16:11:02.316Z,0.982
2022-11-24T16:15:05.187Z,2.386
2022-11-24T16:17:07.305Z,4.492
2022-11-24T16:19:08.834Z,0.842
2022-11-24T16:21:10.000Z,2.948
2022-11-24T16:25:13.802Z,0.982
2022-11-24T16:27:15.102Z,0
2022-11-24T16:29:16.305Z,0
2022-11-24T16:31:17.674Z,0
2022-11-24T16:35:20.520Z,0
2022-11-24T16:37:21.732Z,0
2022-11-24T16:39:23.482Z,0
2022-11-24T16:41:24.902Z,0
2022-11-24T16:43:26.093Z,0
2022-11-24T16:45:27.754Z,0
2022-11-24T16:47:28.992Z,0
2022-11-24T16:49:30.549Z,0
2022-11-24T16:51:34.890Z,0
2022-11-24T16:53:33.339Z,0
2022-11-24T16:55:34.799Z,0
2022-11-24T16:57:36.156Z,0
2022-11-24T16:59:37.773Z,0
2022-11-24T17:01:39.607Z,0
2022-11-24T17:03:41.507Z,0
2022-11-24T17:07:45.173Z,0.842
2022-11-24T17:09:46.317Z,1.263
2022-11-24T17:11:47.501Z,2.106
2022-11-24T17:13:48.769Z,0.702
2022-11-24T17:18:16.632Z,0
2022-11-24T17:19:54.087Z,0
2022-11-24T17:21:55.374Z,0
2022-11-24T17:23:56.734Z,0
2022-11-24T17:25:57.782Z,0
2022-11-24T17:27:59.577Z,0
2022-11-24T17:30:01.547Z,0
2022-11-24T17:32:03.521Z,0
2022-11-24T17:34:04.909Z,0
2022-11-24T17:36:06.678Z,1.544
2022-11-24T17:38:07.666Z,0
2022-11-24T17:42:10.169Z,0
2022-11-24T17:44:11.275Z,0
2022-11-24T17:46:13.146Z,0
2022-11-24T17:48:14.146Z,0
2022-11-24T17:50:16.929Z,0
2022-11-24T17:52:17.675Z,0
2022-11-24T17:54:45.748Z,0
2022-11-24T17:56:20.777Z,0
2022-11-24T17:58:22.401Z,0
2022-11-24T18:00:23.503Z,0
2022-11-24T18:02:24.943Z,0
2022-11-24T18:04:26.503Z,0.421
2022-11-24T18:06:28.351Z,0
2022-11-24T18:08:30.214Z,0
2022-11-24T18:10:31.713Z,0
2022-11-24T18:12:33.226Z,0
2022-11-24T18:14:34.699Z,0.14
2022-11-24T18:16:35.944Z,0
2022-11-24T18:18:40.193Z,0.982
2022-11-24T18:20:38.804Z,0.561
2022-11-24T18:23:04.375Z,0
2022-11-24T18:24:41.883Z,0
2022-11-24T18:26:43.413Z,0.14
2022-11-24T18:28:44.443Z,0
2022-11-24T18:30:46.419Z,0
2022-11-24T18:32:48.093Z,0
2022-11-24T18:34:49.422Z,0
2022-11-24T18:36:51.107Z,0
2022-11-24T18:38:53.027Z,0
2022-11-24T18:40:54.599Z,0
2022-11-24T18:42:56.029Z,0
2022-11-24T18:44:57.561Z,0
2022-11-24T18:46:59.424Z,0
2022-11-24T18:49:00.877Z,0
2022-11-24T18:51:02.154Z,0
2022-11-24T18:53:03.332Z,0
2022-11-24T18:55:04.887Z,0
2022-11-24T18:57:06.354Z,0
2022-11-24T18:59:07.385Z,0
2022-11-24T19:01:08.960Z,0
2022-11-24T19:03:10.885Z,0
2022-11-24T19:05:12.056Z,0
2022-11-24T19:07:13.942Z,0
2022-11-24T19:09:15.755Z,0
2022-11-24T19:11:16.847Z,0
2022-11-24T19:13:18.141Z,0
2022-11-24T19:15:19.791Z,0
2022-11-24T19:17:21.707Z,0
2022-11-24T19:19:22.736Z,0
2022-11-24T19:21:23.858Z,0
2022-11-24T19:23:25.406Z,0
2022-11-24T19:25:26.541Z,0
2022-11-24T19:27:27.704Z,0
2022-11-24T19:31:30.544Z,0
2022-11-24T19:33:32.062Z,0
2022-11-24T19:35:33.461Z,0
2022-11-24T19:37:34.666Z,0
2022-11-24T19:41:37.072Z,0
2022-11-24T19:43:38.711Z,0
2022-11-24T19:45:39.828Z,0
2022-11-24T19:47:41.635Z,0
2022-11-24T19:49:43.548Z,0
2022-11-24T19:53:46.253Z,0
2022-11-24T19:55:47.477Z,0
2022-11-24T19:57:48.578Z,0
2022-11-24T19:59:50.484Z,0
2022-11-24T20:01:51.836Z,0
2022-11-24T20:03:53.742Z,0
2022-11-24T20:05:55.447Z,0
2022-11-24T20:07:56.764Z,0
2022-11-24T20:09:58.596Z,0
2022-11-24T20:14:00.375Z,0
2022-11-24T20:16:01.676Z,2.106
2022-11-24T20:18:03.069Z,2.106
2022-11-24T20:20:04.779Z,1.825
2022-11-24T20:24:07.541Z,0
2022-11-24T20:26:08.764Z,0
2022-11-24T20:28:09.923Z,0
2022-11-24T20:30:11.998Z,0
2022-11-24T20:32:13.049Z,0
2022-11-24T20:34:14.275Z,0
2022-11-24T20:36:15.772Z,0
2022-11-24T20:38:17.504Z,0
2022-11-24T20:40:18.532Z,0
2022-11-24T20:42:20.372Z,0
2022-11-24T20:44:22.095Z,0
2022-11-24T20:46:23.320Z,0
2022-11-24T20:48:24.893Z,0
2022-11-24T20:50:26.516Z,0
2022-11-24T20:52:27.864Z,0
2022-11-24T20:54:29.670Z,0
2022-11-24T20:56:31.005Z,0
2022-11-24T20:58:32.701Z,0
2022-11-24T21:00:34.650Z,0
2022-11-24T21:02:36.536Z,0
2022-11-24T21:04:38.369Z,0
2022-11-24T21:06:40.090Z,0
2022-11-24T21:08:42.042Z,0
2022-11-24T21:10:43.823Z,0
2022-11-24T21:12:45.073Z,0
2022-11-24T21:14:46.674Z,0
2022-11-24T21:16:48.067Z,0
2022-11-24T21:18:49.634Z,0
2022-11-24T21:20:50.911Z,0
2022-11-24T21:21:34.858Z,0
2022-11-24T21:23:36.552Z,0
2022-11-24T21:25:38.245Z,0
2022-11-24T21:27:39.418Z,0
2022-11-24T21:29:41.100Z,0
2022-11-24T21:31:42.742Z,0
2022-11-24T21:33:43.991Z,0
2022-11-24T21:35:45.312Z,0
2022-11-24T21:37:47.196Z,0
2022-11-24T21:39:48.380Z,0
2022-11-24T21:41:49.458Z,0
2022-11-24T21:43:51.401Z,0
2022-11-24T21:45:53.469Z,0
2022-11-24T21:47:55.011Z,0
2022-11-24T21:49:56.208Z,0
2022-11-24T21:51:57.902Z,0
2022-11-24T21:53:59.180Z,0
2022-11-24T21:56:00.797Z,0
2022-11-24T21:58:02.416Z,0
2022-11-24T22:00:03.949Z,0
2022-11-24T22:02:08.834Z,0
2022-11-24T22:04:06.520Z,0
2022-11-24T22:06:07.711Z,0
2022-11-24T22:08:09.650Z,0
2022-11-24T22:10:10.867Z,0
2022-11-24T22:12:12.432Z,0
2022-11-24T22:14:13.872Z,0
2022-11-24T22:16:15.193Z,0
2022-11-24T22:18:17.053Z,0.842
2022-11-24T22:20:19.040Z,0
2022-11-24T22:22:20.440Z,0.14
2022-11-24T22:24:27.030Z,0
2022-11-24T22:26:24.092Z,0
2022-11-24T22:28:25.389Z,0
2022-11-24T22:32:28.356Z,0
2022-11-24T22:34:29.747Z,0
2022-11-24T22:36:30.961Z,0
2022-11-24T22:38:32.583Z,0
2022-11-24T22:42:36.201Z,0
2022-11-24T22:44:38.061Z,0
2022-11-24T22:46:39.655Z,0
2022-11-24T22:48:40.918Z,0
2022-11-24T22:50:41.997Z,0
2022-11-24T22:54:44.871Z,0
2022-11-24T22:56:46.785Z,0
2022-11-24T22:58:48.372Z,0
2022-11-24T23:00:50.336Z,0
2022-11-24T23:02:52.378Z,0
2022-11-24T23:04:53.494Z,0
2022-11-24T23:06:55.428Z,0
2022-11-24T23:08:57.300Z,0
2022-11-24T23:10:58.631Z,0
2022-11-24T23:15:01.221Z,0
2022-11-24T23:17:02.360Z,0
2022-11-24T23:19:04.384Z,0
2022-11-24T23:21:05.822Z,0
2022-11-24T23:25:09.451Z,0
2022-11-24T23:27:11.288Z,0
2022-11-24T23:29:12.466Z,0
2022-11-24T23:31:13.836Z,0
2022-11-24T23:33:14.995Z,0
2022-11-24T23:35:16.992Z,0
2022-11-24T23:37:18.864Z,0
2022-11-24T23:39:20.103Z,0
2022-11-24T23:41:21.985Z,0
2022-11-24T23:43:23.532Z,0
2022-11-24T23:45:24.838Z,0
2022-11-24T23:47:26.124Z,0
2022-11-24T23:49:28.170Z,0
2022-11-24T23:51:30.015Z,0
2022-11-24T23:53:31.651Z,0
2022-11-24T23:57:34.470Z,0
2022-11-24T23:59:35.654Z,0
